sensor_id;sensor_type;location;lat;lon;timestamp;noise_LAeq;noise_LA_min;noise_LA_max;noise_LA01;noise_LA95
66747;Laerm;53658;50.742;10.864;2023-04-03T00:01:38;39.41;37.32;41.14;;
66747;Laerm;53658;50.742;10.864;2023-04-03T00:04:07;39.45;37.12;41.46;;
66747;Laerm;53658;50.742;10.864;2023-04-03T00:06:33;39.46;36.69;41.30;;
66747;Laerm;53658;50.742;10.864;2023-04-03T00:09:00;39.44;36.91;41.38;;
66747;Laerm;53658;50.742;10.864;2023-04-03T00:11:27;39.44;37.12;41.22;;
66747;Laerm;53658;50.742;10.864;2023-04-03T00:13:52;39.39;36.69;41.30;;
66747;Laerm;53658;50.742;10.864;2023-04-03T00:16:18;39.35;36.45;41.30;;
66747;Laerm;53658;50.742;10.864;2023-04-03T00:18:44;39.35;36.69;41.46;;
66747;Laerm;53658;50.742;10.864;2023-04-03T00:21:12;39.38;36.69;41.46;;
66747;Laerm;53658;50.742;10.864;2023-04-03T00:23:38;39.37;37.12;41.46;;
66747;Laerm;53658;50.742;10.864;2023-04-03T00:26:04;39.40;36.91;41.38;;
66747;Laerm;53658;50.742;10.864;2023-04-03T00:28:30;39.38;36.20;41.30;;
66747;Laerm;53658;50.742;10.864;2023-04-03T00:30:57;39.36;36.69;42.03;;
66747;Laerm;53658;50.742;10.864;2023-04-03T00:33:23;39.37;36.69;41.38;;
66747;Laerm;53658;50.742;10.864;2023-04-03T00:35:50;39.40;37.12;42.03;;
66747;Laerm;53658;50.742;10.864;2023-04-03T00:38:17;39.47;37.12;41.53;;
66747;Laerm;53658;50.742;10.864;2023-04-03T00:40:46;39.40;37.12;41.38;;
66747;Laerm;53658;50.742;10.864;2023-04-03T00:43:18;39.42;36.91;41.38;;
66747;Laerm;53658;50.742;10.864;2023-04-03T00:45:47;39.45;36.91;41.61;;
66747;Laerm;53658;50.742;10.864;2023-04-03T00:48:28;39.43;36.69;41.53;;
66747;Laerm;53658;50.742;10.864;2023-04-03T00:50:57;39.42;36.91;41.46;;
66747;Laerm;53658;50.742;10.864;2023-04-03T00:53:30;39.41;36.69;41.53;;
66747;Laerm;53658;50.742;10.864;2023-04-03T00:55:57;39.41;36.69;41.30;;
66747;Laerm;53658;50.742;10.864;2023-04-03T00:58:31;39.39;36.69;41.38;;
66747;Laerm;53658;50.742;10.864;2023-04-03T01:01:05;39.44;37.12;41.53;;
66747;Laerm;53658;50.742;10.864;2023-04-03T01:03:32;39.43;37.12;41.53;;
66747;Laerm;53658;50.742;10.864;2023-04-03T01:06:00;39.40;36.69;41.46;;
66747;Laerm;53658;50.742;10.864;2023-04-03T01:08:26;39.48;36.20;41.61;;
66747;Laerm;53658;50.742;10.864;2023-04-03T01:10:52;39.45;36.69;41.30;;
66747;Laerm;53658;50.742;10.864;2023-04-03T01:13:30;39.46;36.91;42.82;;
66747;Laerm;53658;50.742;10.864;2023-04-03T01:15:57;39.42;36.91;41.82;;
66747;Laerm;53658;50.742;10.864;2023-04-03T01:18:26;39.41;36.69;41.30;;
66747;Laerm;53658;50.742;10.864;2023-04-03T01:25:58;39.40;37.12;41.53;;
66747;Laerm;53658;50.742;10.864;2023-04-03T01:28:31;39.39;36.34;41.30;;
66747;Laerm;53658;50.742;10.864;2023-04-03T01:31:08;39.40;36.91;41.30;;
66747;Laerm;53658;50.742;10.864;2023-04-03T01:33:37;39.34;37.12;41.75;;
66747;Laerm;53658;50.742;10.864;2023-04-03T01:36:04;39.41;36.69;42.29;;
66747;Laerm;53658;50.742;10.864;2023-04-03T01:38:31;39.42;36.69;41.38;;
66747;Laerm;53658;50.742;10.864;2023-04-03T01:40:57;39.37;36.91;41.96;;
66747;Laerm;53658;50.742;10.864;2023-04-03T01:43:23;39.37;36.69;41.38;;
66747;Laerm;53658;50.742;10.864;2023-04-03T01:45:49;39.38;36.69;41.30;;
66747;Laerm;53658;50.742;10.864;2023-04-03T01:48:16;39.38;36.91;41.82;;
66747;Laerm;53658;50.742;10.864;2023-04-03T01:50:42;39.38;37.12;41.14;;
66747;Laerm;53658;50.742;10.864;2023-04-03T01:53:08;39.41;36.69;41.22;;
66747;Laerm;53658;50.742;10.864;2023-04-03T01:55:34;39.39;36.91;41.68;;
66747;Laerm;53658;50.742;10.864;2023-04-03T01:58:00;39.37;36.91;41.53;;
66747;Laerm;53658;50.742;10.864;2023-04-03T02:00:26;39.37;36.91;41.30;;
66747;Laerm;53658;50.742;10.864;2023-04-03T02:02:52;39.43;37.12;41.61;;
66747;Laerm;53658;50.742;10.864;2023-04-03T02:05:18;39.44;36.69;41.75;;
66747;Laerm;53658;50.742;10.864;2023-04-03T02:07:44;39.36;37.12;42.22;;
66747;Laerm;53658;50.742;10.864;2023-04-03T02:10:10;39.30;36.91;41.75;;
66747;Laerm;53658;50.742;10.864;2023-04-03T02:12:36;39.29;36.91;41.30;;
66747;Laerm;53658;50.742;10.864;2023-04-03T02:15:02;39.24;36.69;42.16;;
66747;Laerm;53658;50.742;10.864;2023-04-03T02:17:29;39.21;36.45;41.14;;
66747;Laerm;53658;50.742;10.864;2023-04-03T02:19:54;39.23;37.12;41.46;;
66747;Laerm;53658;50.742;10.864;2023-04-03T02:22:20;39.27;36.69;41.38;;
66747;Laerm;53658;50.742;10.864;2023-04-03T02:24:46;39.21;36.69;41.06;;
66747;Laerm;53658;50.742;10.864;2023-04-03T02:27:13;39.22;37.12;41.06;;
66747;Laerm;53658;50.742;10.864;2023-04-03T02:29:40;39.21;36.45;44.58;;
66747;Laerm;53658;50.742;10.864;2023-04-03T02:32:06;39.27;36.69;42.98;;
66747;Laerm;53658;50.742;10.864;2023-04-03T02:34:33;39.26;36.69;41.38;;
66747;Laerm;53658;50.742;10.864;2023-04-03T02:37:00;39.24;36.91;42.41;;
66747;Laerm;53658;50.742;10.864;2023-04-03T02:39:26;39.18;35.94;42.53;;
66747;Laerm;53658;50.742;10.864;2023-04-03T02:41:53;39.21;36.69;42.98;;
66747;Laerm;53658;50.742;10.864;2023-04-03T02:44:23;39.21;36.69;42.29;;
66747;Laerm;53658;50.742;10.864;2023-04-03T02:46:49;39.20;36.69;41.22;;
66747;Laerm;53658;50.742;10.864;2023-04-03T02:49:16;39.17;36.69;43.24;;
66747;Laerm;53658;50.742;10.864;2023-04-03T02:51:42;39.17;36.69;41.38;;
66747;Laerm;53658;50.742;10.864;2023-04-03T02:54:08;39.18;36.20;49.14;;
66747;Laerm;53658;50.742;10.864;2023-04-03T02:56:37;39.13;36.45;41.22;;
66747;Laerm;53658;50.742;10.864;2023-04-03T02:59:03;39.16;36.69;41.61;;
66747;Laerm;53658;50.742;10.864;2023-04-03T03:01:29;39.21;36.69;41.82;;
66747;Laerm;53658;50.742;10.864;2023-04-03T03:03:59;39.19;36.45;42.41;;
66747;Laerm;53658;50.742;10.864;2023-04-03T03:06:26;39.19;36.45;42.76;;
66747;Laerm;53658;50.742;10.864;2023-04-03T03:08:52;39.19;36.45;41.46;;
66747;Laerm;53658;50.742;10.864;2023-04-03T03:11:19;39.20;36.69;41.30;;
66747;Laerm;53658;50.742;10.864;2023-04-03T03:13:45;39.22;36.45;42.22;;
66747;Laerm;53658;50.742;10.864;2023-04-03T03:16:11;39.15;36.45;41.82;;
66747;Laerm;53658;50.742;10.864;2023-04-03T03:18:36;39.15;36.56;41.22;;
66747;Laerm;53658;50.742;10.864;2023-04-03T03:21:03;39.10;36.20;40.98;;
66747;Laerm;53658;50.742;10.864;2023-04-03T03:23:31;39.17;36.91;40.98;;
66747;Laerm;53658;50.742;10.864;2023-04-03T03:26:05;39.18;36.69;42.47;;
66747;Laerm;53658;50.742;10.864;2023-04-03T03:28:34;39.10;36.69;41.26;;
66747;Laerm;53658;50.742;10.864;2023-04-03T03:31:02;39.09;36.20;41.68;;
66747;Laerm;53658;50.742;10.864;2023-04-03T03:33:30;39.08;36.45;40.98;;
66747;Laerm;53658;50.742;10.864;2023-04-03T03:35:56;39.06;36.69;41.30;;
66747;Laerm;53658;50.742;10.864;2023-04-03T03:38:23;39.08;36.69;41.30;;
66747;Laerm;53658;50.742;10.864;2023-04-03T03:40:50;39.09;36.69;41.53;;
66747;Laerm;53658;50.742;10.864;2023-04-03T03:43:18;39.13;36.69;41.22;;
66747;Laerm;53658;50.742;10.864;2023-04-03T03:45:50;39.14;36.69;41.22;;
66747;Laerm;53658;50.742;10.864;2023-04-03T03:48:17;39.14;36.69;40.98;;
66747;Laerm;53658;50.742;10.864;2023-04-03T03:50:43;39.12;36.69;41.06;;
66747;Laerm;53658;50.742;10.864;2023-04-03T03:53:08;39.13;36.69;41.46;;
66747;Laerm;53658;50.742;10.864;2023-04-03T03:55:35;39.14;36.45;43.24;;
66747;Laerm;53658;50.742;10.864;2023-04-03T03:58:01;39.18;35.94;41.14;;
66747;Laerm;53658;50.742;10.864;2023-04-03T04:00:29;39.24;36.20;41.22;;
66747;Laerm;53658;50.742;10.864;2023-04-03T04:02:56;39.25;36.69;41.38;;
66747;Laerm;53658;50.742;10.864;2023-04-03T04:05:23;39.25;36.45;41.14;;
66747;Laerm;53658;50.742;10.864;2023-04-03T04:07:49;39.24;36.69;41.06;;
66747;Laerm;53658;50.742;10.864;2023-04-03T04:10:15;39.26;36.69;41.14;;
66747;Laerm;53658;50.742;10.864;2023-04-03T04:12:43;39.23;36.45;41.46;;
66747;Laerm;53658;50.742;10.864;2023-04-03T04:15:10;39.21;36.91;42.03;;
66747;Laerm;53658;50.742;10.864;2023-04-03T04:17:36;39.24;36.45;43.58;;
66747;Laerm;53658;50.742;10.864;2023-04-03T04:20:04;39.26;36.69;41.41;;
66747;Laerm;53658;50.742;10.864;2023-04-03T04:22:32;39.24;36.69;42.41;;
66747;Laerm;53658;50.742;10.864;2023-04-03T04:24:58;39.29;36.69;41.22;;
66747;Laerm;53658;50.742;10.864;2023-04-03T04:27:25;39.30;36.20;41.22;;
66747;Laerm;53658;50.742;10.864;2023-04-03T04:29:51;39.29;36.91;41.38;;
66747;Laerm;53658;50.742;10.864;2023-04-03T04:32:17;39.27;37.12;41.46;;
66747;Laerm;53658;50.742;10.864;2023-04-03T04:34:44;39.26;36.91;41.46;;
66747;Laerm;53658;50.742;10.864;2023-04-03T04:37:10;39.29;36.91;41.38;;
66747;Laerm;53658;50.742;10.864;2023-04-03T04:39:36;39.30;36.69;41.22;;
66747;Laerm;53658;50.742;10.864;2023-04-03T04:42:03;39.32;37.12;41.22;;
66747;Laerm;53658;50.742;10.864;2023-04-03T04:44:30;39.31;36.69;41.30;;
66747;Laerm;53658;50.742;10.864;2023-04-03T04:46:56;39.34;36.45;41.46;;
66747;Laerm;53658;50.742;10.864;2023-04-03T04:49:22;39.34;36.91;41.38;;
66747;Laerm;53658;50.742;10.864;2023-04-03T04:51:48;39.34;36.69;41.30;;
66747;Laerm;53658;50.742;10.864;2023-04-03T04:54:16;39.34;37.12;41.30;;
66747;Laerm;53658;50.742;10.864;2023-04-03T04:56:42;39.33;36.91;41.38;;
66747;Laerm;53658;50.742;10.864;2023-04-03T04:59:08;39.35;36.45;41.38;;
66747;Laerm;53658;50.742;10.864;2023-04-03T05:01:34;39.36;36.45;41.14;;
66747;Laerm;53658;50.742;10.864;2023-04-03T05:04:06;39.40;36.69;41.61;;
66747;Laerm;53658;50.742;10.864;2023-04-03T05:06:33;39.45;36.91;41.61;;
66747;Laerm;53658;50.742;10.864;2023-04-03T05:09:01;39.37;36.91;41.61;;
66747;Laerm;53658;50.742;10.864;2023-04-03T05:11:28;39.37;37.12;41.22;;
66747;Laerm;53658;50.742;10.864;2023-04-03T05:13:55;39.36;36.91;41.14;;
66747;Laerm;53658;50.742;10.864;2023-04-03T05:16:22;39.37;36.69;41.61;;
66747;Laerm;53658;50.742;10.864;2023-04-03T05:18:48;39.39;37.12;41.30;;
66747;Laerm;53658;50.742;10.864;2023-04-03T05:21:18;39.41;36.45;42.09;;
66747;Laerm;53658;50.742;10.864;2023-04-03T05:23:45;39.41;36.69;41.30;;
66747;Laerm;53658;50.742;10.864;2023-04-03T05:26:11;39.44;36.91;41.22;;
66747;Laerm;53658;50.742;10.864;2023-04-03T05:28:38;39.43;36.45;41.38;;
66747;Laerm;53658;50.742;10.864;2023-04-03T05:31:04;39.45;37.12;41.61;;
66747;Laerm;53658;50.742;10.864;2023-04-03T05:33:34;39.43;36.69;41.22;;
66747;Laerm;53658;50.742;10.864;2023-04-03T05:36:04;39.46;36.91;41.38;;
66747;Laerm;53658;50.742;10.864;2023-04-03T05:38:33;39.43;37.32;41.30;;
66747;Laerm;53658;50.742;10.864;2023-04-03T05:40:59;39.45;36.91;41.46;;
66747;Laerm;53658;50.742;10.864;2023-04-03T05:43:25;39.47;37.12;41.14;;
66747;Laerm;53658;50.742;10.864;2023-04-03T05:45:52;39.47;37.12;41.06;;
66747;Laerm;53658;50.742;10.864;2023-04-03T05:48:19;39.44;37.12;41.68;;
66747;Laerm;53658;50.742;10.864;2023-04-03T05:50:46;39.45;37.12;41.61;;
66747;Laerm;53658;50.742;10.864;2023-04-03T05:53:22;39.44;37.12;41.33;;
66747;Laerm;53658;50.742;10.864;2023-04-03T05:55:50;39.51;37.12;42.47;;
66747;Laerm;53658;50.742;10.864;2023-04-03T05:58:16;39.46;37.35;41.38;;
66747;Laerm;53658;50.742;10.864;2023-04-03T06:00:44;39.47;36.77;41.53;;
66747;Laerm;53658;50.742;10.864;2023-04-03T06:03:14;39.47;37.32;41.53;;
66747;Laerm;53658;50.742;10.864;2023-04-03T06:05:41;39.47;36.69;41.53;;
66747;Laerm;53658;50.742;10.864;2023-04-03T06:08:07;39.51;37.12;41.61;;
66747;Laerm;53658;50.742;10.864;2023-04-03T06:10:35;39.48;37.12;43.33;;
66747;Laerm;53658;50.742;10.864;2023-04-03T06:13:02;39.46;37.32;41.30;;
66747;Laerm;53658;50.742;10.864;2023-04-03T06:15:28;39.43;37.32;41.14;;
66747;Laerm;53658;50.742;10.864;2023-04-03T06:17:53;39.47;37.12;41.38;;
66747;Laerm;53658;50.742;10.864;2023-04-03T06:20:19;39.47;36.91;42.59;;
66747;Laerm;53658;50.742;10.864;2023-04-03T06:22:46;39.47;37.12;41.38;;
66747;Laerm;53658;50.742;10.864;2023-04-03T06:25:12;39.49;37.32;41.30;;
66747;Laerm;53658;50.742;10.864;2023-04-03T06:27:38;39.46;36.91;41.22;;
66747;Laerm;53658;50.742;10.864;2023-04-03T06:30:05;39.47;36.69;41.30;;
66747;Laerm;53658;50.742;10.864;2023-04-03T06:32:32;39.46;36.91;41.38;;
66747;Laerm;53658;50.742;10.864;2023-04-03T06:34:57;39.45;36.91;41.22;;
66747;Laerm;53658;50.742;10.864;2023-04-03T06:37:24;39.47;36.91;41.30;;
66747;Laerm;53658;50.742;10.864;2023-04-03T06:39:54;39.47;37.12;41.38;;
66747;Laerm;53658;50.742;10.864;2023-04-03T06:42:21;39.46;37.12;41.53;;
66747;Laerm;53658;50.742;10.864;2023-04-03T06:44:54;39.48;37.12;41.46;;
66747;Laerm;53658;50.742;10.864;2023-04-03T06:47:20;39.50;36.45;41.30;;
66747;Laerm;53658;50.742;10.864;2023-04-03T06:49:46;39.46;36.34;41.68;;
66747;Laerm;53658;50.742;10.864;2023-04-03T06:52:12;39.50;36.69;41.61;;
66747;Laerm;53658;50.742;10.864;2023-04-03T06:54:39;39.48;37.12;41.53;;
66747;Laerm;53658;50.742;10.864;2023-04-03T06:57:06;39.45;37.12;41.30;;
66747;Laerm;53658;50.742;10.864;2023-04-03T06:59:32;39.44;36.91;41.38;;
66747;Laerm;53658;50.742;10.864;2023-04-03T07:01:58;39.45;36.91;41.38;;
66747;Laerm;53658;50.742;10.864;2023-04-03T07:04:25;39.45;36.45;41.53;;
66747;Laerm;53658;50.742;10.864;2023-04-03T07:06:51;39.46;37.12;41.61;;
66747;Laerm;53658;50.742;10.864;2023-04-03T07:09:17;39.44;36.91;41.30;;
66747;Laerm;53658;50.742;10.864;2023-04-03T07:11:44;39.49;36.91;41.26;;
66747;Laerm;53658;50.742;10.864;2023-04-03T07:14:10;39.46;36.91;41.38;;
66747;Laerm;53658;50.742;10.864;2023-04-03T07:16:35;39.46;37.12;41.33;;
66747;Laerm;53658;50.742;10.864;2023-04-03T07:19:02;39.50;36.91;42.71;;
66747;Laerm;53658;50.742;10.864;2023-04-03T07:21:28;39.52;36.91;41.46;;
66747;Laerm;53658;50.742;10.864;2023-04-03T07:23:54;39.57;37.32;41.53;;
66747;Laerm;53658;50.742;10.864;2023-04-03T07:26:20;39.53;36.69;42.35;;
66747;Laerm;53658;50.742;10.864;2023-04-03T07:28:47;39.52;36.91;41.46;;
66747;Laerm;53658;50.742;10.864;2023-04-03T07:31:15;40.15;37.32;41.82;;
66747;Laerm;53658;50.742;10.864;2023-04-03T07:33:43;40.44;38.32;43.24;;
66747;Laerm;53658;50.742;10.864;2023-04-03T07:36:11;40.06;37.53;42.09;;
66747;Laerm;53658;50.742;10.864;2023-04-03T07:38:39;39.52;35.94;42.03;;
66747;Laerm;53658;50.742;10.864;2023-04-03T07:41:06;39.09;35.66;41.30;;
66747;Laerm;53658;50.742;10.864;2023-04-03T07:43:32;38.91;35.04;58.79;;
66747;Laerm;53658;50.742;10.864;2023-04-03T07:45:59;38.86;34.31;43.34;;
66747;Laerm;53658;50.742;10.864;2023-04-03T07:48:26;38.53;32.93;43.72;;
66747;Laerm;53658;50.742;10.864;2023-04-03T07:50:52;38.36;34.69;43.49;;
66747;Laerm;53658;50.742;10.864;2023-04-03T07:53:19;39.07;33.97;44.27;;
66747;Laerm;53658;50.742;10.864;2023-04-03T07:55:48;39.53;35.36;43.64;;
66747;Laerm;53658;50.742;10.864;2023-04-03T07:58:17;39.56;36.45;42.35;;
66747;Laerm;53658;50.742;10.864;2023-04-03T08:00:44;39.63;36.45;41.75;;
66747;Laerm;53658;50.742;10.864;2023-04-03T08:03:11;39.81;36.69;42.41;;
66747;Laerm;53658;50.742;10.864;2023-04-03T08:05:42;40.02;37.32;42.47;;
66747;Laerm;53658;50.742;10.864;2023-04-03T08:08:13;40.05;37.52;42.98;;
66747;Laerm;53658;50.742;10.864;2023-04-03T08:10:40;39.68;35.94;44.07;;
66747;Laerm;53658;50.742;10.864;2023-04-03T08:13:07;39.68;36.69;43.49;;
66747;Laerm;53658;50.742;10.864;2023-04-03T08:15:33;39.67;36.69;42.22;;
66747;Laerm;53658;50.742;10.864;2023-04-03T08:17:59;39.82;36.45;45.23;;
66747;Laerm;53658;50.742;10.864;2023-04-03T08:20:26;39.24;35.66;41.82;;
66747;Laerm;53658;50.742;10.864;2023-04-03T08:22:53;39.16;33.90;43.58;;
66747;Laerm;53658;50.742;10.864;2023-04-03T08:25:19;38.44;35.04;43.49;;
66747;Laerm;53658;50.742;10.864;2023-04-03T08:27:45;39.20;33.90;48.12;;
66747;Laerm;53658;50.742;10.864;2023-04-03T08:30:11;38.41;34.31;50.82;;
66747;Laerm;53658;50.742;10.864;2023-04-03T08:32:37;38.11;33.90;41.46;;
66747;Laerm;53658;50.742;10.864;2023-04-03T08:35:04;38.00;32.93;42.65;;
66747;Laerm;53658;50.742;10.864;2023-04-03T08:37:30;37.82;32.93;40.62;;
66747;Laerm;53658;50.742;10.864;2023-04-03T08:39:57;38.18;32.35;43.19;;
66747;Laerm;53658;50.742;10.864;2023-04-03T08:45:48;37.87;32.35;42.22;;
66747;Laerm;53658;50.742;10.864;2023-04-03T08:48:40;37.63;31.68;42.59;;
66747;Laerm;53658;50.742;10.864;2023-04-03T08:51:14;37.53;31.68;41.96;;
66747;Laerm;53658;50.742;10.864;2023-04-03T08:53:53;37.61;31.68;42.29;;
66747;Laerm;53658;50.742;10.864;2023-04-03T08:56:21;37.55;31.68;40.43;;
66747;Laerm;53658;50.742;10.864;2023-04-03T09:01:35;37.74;32.00;43.24;;
66747;Laerm;53658;50.742;10.864;2023-04-03T09:04:10;38.76;29.92;47.40;;
66747;Laerm;53658;50.742;10.864;2023-04-03T09:06:38;37.74;29.92;43.77;;
66747;Laerm;53658;50.742;10.864;2023-04-03T09:09:56;37.31;30.89;40.71;;
66747;Laerm;53658;50.742;10.864;2023-04-03T09:12:28;37.61;29.92;42.59;;
66747;Laerm;53658;50.742;10.864;2023-04-03T09:17:55;37.26;30.89;43.39;;
66747;Laerm;53658;50.742;10.864;2023-04-03T09:23:20;37.60;29.92;51.17;;
66747;Laerm;53658;50.742;10.864;2023-04-03T09:25:51;38.87;32.35;45.72;;
66747;Laerm;53658;50.742;10.864;2023-04-03T09:28:19;37.39;29.92;45.01;;
66747;Laerm;53658;50.742;10.864;2023-04-03T09:30:45;37.48;30.89;44.97;;
66747;Laerm;53658;50.742;10.864;2023-04-03T09:33:12;40.05;30.89;55.35;;
66747;Laerm;53658;50.742;10.864;2023-04-03T09:35:40;38.94;29.92;44.58;;
66747;Laerm;53658;50.742;10.864;2023-04-03T09:40:38;37.88;31.68;45.48;;
66747;Laerm;53658;50.742;10.864;2023-04-03T09:45:44;39.02;30.89;48.88;;
66747;Laerm;53658;50.742;10.864;2023-04-03T09:51:01;37.45;29.92;42.90;;
66747;Laerm;53658;50.742;10.864;2023-04-03T09:53:42;37.61;30.89;47.12;;
66747;Laerm;53658;50.742;10.864;2023-04-03T09:58:51;37.12;28.67;42.53;;
66747;Laerm;53658;50.742;10.864;2023-04-03T10:01:28;40.42;31.68;47.06;;
66747;Laerm;53658;50.742;10.864;2023-04-03T10:06:42;37.25;28.67;42.82;;
66747;Laerm;53658;50.742;10.864;2023-04-03T10:12:10;37.40;29.92;46.59;;
66747;Laerm;53658;50.742;10.864;2023-04-03T10:14:55;38.00;29.92;46.55;;
66747;Laerm;53658;50.742;10.864;2023-04-03T10:17:25;37.38;30.89;44.47;;
66747;Laerm;53658;50.742;10.864;2023-04-03T10:25:31;37.56;28.67;43.86;;
66747;Laerm;53658;50.742;10.864;2023-04-03T10:31:04;37.64;23.90;43.90;;
66747;Laerm;53658;50.742;10.864;2023-04-03T10:36:33;38.68;26.91;44.76;;
66747;Laerm;53658;50.742;10.864;2023-04-03T10:50:35;37.62;29.92;44.07;;
66747;Laerm;53658;50.742;10.864;2023-04-03T10:59:07;38.12;30.89;44.03;;
66747;Laerm;53658;50.742;10.864;2023-04-03T11:01:44;37.29;30.54;43.14;;
66747;Laerm;53658;50.742;10.864;2023-04-03T11:04:12;37.48;29.92;43.19;;
66747;Laerm;53658;50.742;10.864;2023-04-03T11:06:56;37.26;30.54;43.19;;
66747;Laerm;53658;50.742;10.864;2023-04-03T11:09:35;37.14;30.89;42.29;;
66747;Laerm;53658;50.742;10.864;2023-04-03T11:12:15;37.26;30.89;41.61;;
66747;Laerm;53658;50.742;10.864;2023-04-03T11:14:47;37.99;29.92;43.14;;
66747;Laerm;53658;50.742;10.864;2023-04-03T11:20:08;37.01;26.91;40.98;;
66747;Laerm;53658;50.742;10.864;2023-04-03T11:22:42;37.02;29.92;40.98;;
66747;Laerm;53658;50.742;10.864;2023-04-03T11:27:43;36.78;31.68;39.92;;
66747;Laerm;53658;50.742;10.864;2023-04-03T11:30:28;36.89;28.67;41.06;;
66747;Laerm;53658;50.742;10.864;2023-04-03T11:36:18;37.80;29.92;54.28;;
66747;Laerm;53658;50.742;10.864;2023-04-03T11:38:49;38.13;30.89;45.80;;
66747;Laerm;53658;50.742;10.864;2023-04-03T11:41:26;38.38;28.67;50.42;;
66747;Laerm;53658;50.742;10.864;2023-04-03T11:44:00;37.84;31.33;43.34;;
66747;Laerm;53658;50.742;10.864;2023-04-03T11:46:49;37.83;29.92;53.28;;
66747;Laerm;53658;50.742;10.864;2023-04-03T11:50:15;38.45;30.89;43.99;;
66747;Laerm;53658;50.742;10.864;2023-04-03T12:08:45;38.77;30.89;46.87;;
66747;Laerm;53658;50.742;10.864;2023-04-03T12:16:19;38.62;31.68;44.65;;
66747;Laerm;53658;50.742;10.864;2023-04-03T12:21:16;37.12;29.92;42.35;;
66747;Laerm;53658;50.742;10.864;2023-04-03T12:24:03;37.53;31.68;43.39;;
66747;Laerm;53658;50.742;10.864;2023-04-03T12:26:36;36.99;30.89;40.33;;
66747;Laerm;53658;50.742;10.864;2023-04-03T12:29:23;37.43;31.68;42.16;;
66747;Laerm;53658;50.742;10.864;2023-04-03T12:45:27;39.49;31.68;50.05;;
66747;Laerm;53658;50.742;10.864;2023-04-03T12:47:55;39.88;29.92;48.03;;
66747;Laerm;53658;50.742;10.864;2023-04-03T12:50:27;40.32;29.92;46.07;;
66747;Laerm;53658;50.742;10.864;2023-04-03T12:53:05;39.96;30.89;49.45;;
66747;Laerm;53658;50.742;10.864;2023-04-03T12:55:32;37.59;30.89;44.07;;
66747;Laerm;53658;50.742;10.864;2023-04-03T12:58:14;37.77;28.67;44.47;;
66747;Laerm;53658;50.742;10.864;2023-04-03T13:00:40;37.19;23.90;42.22;;
66747;Laerm;53658;50.742;10.864;2023-04-03T13:03:22;38.82;29.92;45.42;;
66747;Laerm;53658;50.742;10.864;2023-04-03T13:05:50;37.98;31.68;43.72;;
66747;Laerm;53658;50.742;10.864;2023-04-03T13:08:17;38.34;29.92;45.27;;
66747;Laerm;53658;50.742;10.864;2023-04-03T13:11:06;38.73;30.89;45.66;;
66747;Laerm;53658;50.742;10.864;2023-04-03T13:13:35;37.68;31.68;49.43;;
66747;Laerm;53658;50.742;10.864;2023-04-03T13:16:10;38.32;29.57;45.17;;
66747;Laerm;53658;50.742;10.864;2023-04-03T13:18:37;37.88;30.89;43.72;;
66747;Laerm;53658;50.742;10.864;2023-04-03T13:21:23;37.22;30.89;42.35;;
66747;Laerm;53658;50.742;10.864;2023-04-03T13:23:54;37.56;31.68;42.47;;
66747;Laerm;53658;50.742;10.864;2023-04-03T13:26:25;38.19;30.89;44.47;;
66747;Laerm;53658;50.742;10.864;2023-04-03T13:28:53;37.79;30.89;47.72;;
66747;Laerm;53658;50.742;10.864;2023-04-03T13:31:40;39.29;30.89;44.19;;
66747;Laerm;53658;50.742;10.864;2023-04-03T13:36:41;39.32;31.68;45.23;;
66747;Laerm;53658;50.742;10.864;2023-04-03T13:41:54;37.15;29.92;43.49;;
66747;Laerm;53658;50.742;10.864;2023-04-03T13:46:50;37.90;30.89;43.09;;
66747;Laerm;53658;50.742;10.864;2023-04-03T13:49:31;38.28;31.68;43.68;;
66747;Laerm;53658;50.742;10.864;2023-04-03T13:51:58;38.13;31.68;43.04;;
66747;Laerm;53658;50.742;10.864;2023-04-03T13:54:35;37.77;28.67;43.99;;
66747;Laerm;53658;50.742;10.864;2023-04-03T13:57:02;37.73;30.89;43.29;;
66747;Laerm;53658;50.742;10.864;2023-04-03T13:59:35;38.90;30.89;48.83;;
66747;Laerm;53658;50.742;10.864;2023-04-03T14:04:30;38.13;29.92;48.23;;
66747;Laerm;53658;50.742;10.864;2023-04-03T14:06:57;37.46;29.92;42.88;;
66747;Laerm;53658;50.742;10.864;2023-04-03T14:09:27;37.68;31.68;42.59;;
66747;Laerm;53658;50.742;10.864;2023-04-03T14:11:57;37.73;30.89;44.58;;
66747;Laerm;53658;50.742;10.864;2023-04-03T14:14:29;38.22;28.67;48.25;;
66747;Laerm;53658;50.742;10.864;2023-04-03T14:16:59;39.14;31.68;44.90;;
66747;Laerm;53658;50.742;10.864;2023-04-03T14:19:32;37.98;29.92;46.64;;
66747;Laerm;53658;50.742;10.864;2023-04-03T14:22:01;36.78;29.92;40.80;;
66747;Laerm;53658;50.742;10.864;2023-04-03T14:24:32;37.42;28.67;42.53;;
66747;Laerm;53658;50.742;10.864;2023-04-03T14:26:58;37.37;29.92;42.36;;
66747;Laerm;53658;50.742;10.864;2023-04-03T14:29:25;37.66;23.90;43.49;;
66747;Laerm;53658;50.742;10.864;2023-04-03T14:31:51;36.78;30.89;39.99;;
66747;Laerm;53658;50.742;10.864;2023-04-03T14:34:17;37.85;28.67;43.63;;
66747;Laerm;53658;50.742;10.864;2023-04-03T14:36:44;39.64;32.35;45.63;;
66747;Laerm;53658;50.742;10.864;2023-04-03T14:39:17;40.62;29.92;55.69;;
66747;Laerm;53658;50.742;10.864;2023-04-03T14:41:44;38.32;28.67;44.76;;
66747;Laerm;53658;50.742;10.864;2023-04-03T14:44:10;39.12;31.68;46.02;;
66747;Laerm;53658;50.742;10.864;2023-04-03T14:46:39;39.42;31.68;48.10;;
66747;Laerm;53658;50.742;10.864;2023-04-03T14:49:21;38.37;30.89;43.72;;
66747;Laerm;53658;50.742;10.864;2023-04-03T14:51:47;37.14;26.91;43.19;;
66747;Laerm;53658;50.742;10.864;2023-04-03T14:54:19;37.66;29.92;44.19;;
66747;Laerm;53658;50.742;10.864;2023-04-03T14:56:47;38.55;29.92;48.02;;
66747;Laerm;53658;50.742;10.864;2023-04-03T14:59:14;39.08;29.92;48.40;;
66747;Laerm;53658;50.742;10.864;2023-04-03T15:01:40;39.05;29.92;43.86;;
66747;Laerm;53658;50.742;10.864;2023-04-03T15:04:12;38.18;30.89;44.39;;
66747;Laerm;53658;50.742;10.864;2023-04-03T15:06:39;37.00;26.91;41.75;;
66747;Laerm;53658;50.742;10.864;2023-04-03T15:09:19;37.37;30.89;42.29;;
66747;Laerm;53658;50.742;10.864;2023-04-03T15:11:47;37.39;28.67;42.35;;
66747;Laerm;53658;50.742;10.864;2023-04-03T15:14:13;37.40;30.89;42.41;;
66747;Laerm;53658;50.742;10.864;2023-04-03T15:16:39;36.90;30.89;40.89;;
66747;Laerm;53658;50.742;10.864;2023-04-03T15:19:05;37.46;30.89;43.54;;
66747;Laerm;53658;50.742;10.864;2023-04-03T15:21:31;37.27;30.89;42.22;;
66747;Laerm;53658;50.742;10.864;2023-04-03T15:23:57;38.35;30.89;44.15;;
66747;Laerm;53658;50.742;10.864;2023-04-03T15:26:23;38.24;30.89;45.01;;
66747;Laerm;53658;50.742;10.864;2023-04-03T15:28:49;38.07;32.35;45.57;;
66747;Laerm;53658;50.742;10.864;2023-04-03T15:31:18;37.83;30.89;43.58;;
66747;Laerm;53658;50.742;10.864;2023-04-03T15:33:44;38.02;28.67;43.34;;
66747;Laerm;53658;50.742;10.864;2023-04-03T15:36:12;37.73;30.89;43.19;;
66747;Laerm;53658;50.742;10.864;2023-04-03T15:38:38;37.02;30.89;42.29;;
66747;Laerm;53658;50.742;10.864;2023-04-03T15:41:04;37.29;28.67;41.88;;